Terminal Aerodrome Forecast
Issued by NWS Cleveland, OH

Home | Current Version | Previous Version | Graphics & Text | Print | Product List | Glossary On
Versions: 1 2 3 4 5 6 7 8 9 10 11 12 13 14
000
FTUS41 KCLE 032335
TAFYNG
TAF
KYNG 032335Z 0400/0424 04004KT P6SM VCSH SCT050 OVC150
     FM040400 36004KT P6SM SCT070 BKN200
      TEMPO 0409/0413 4SM BR
     FM041400 34006KT P6SM SCT020 BKN200
     FM041800 32006KT P6SM SCT040=

USA.gov is the U.S. government's official web portal to all federal, state and local government web resources and services.